Terminal Aerodrome Forecast
Issued by NWS Portland, OR

Home | Current Version | Previous Version | Text Only | Print | Product List | Glossary On
Versions: 1 2 3 4 5 6 7 8 9 10 11 12 13 14 15 16 17 18 19 20 21 22 23 24 25
000
FTUS46 KPQR 221452 AAA
TAFPDX
TAF AMD
KPDX 221452Z 2215/2312 12011KT P6SM -RA BKN050 OVC100
     FM222100 15010KT P6SM -SHRA BKN050 OVC070
     FM230000 12009KT P6SM -SHRA BKN050 BKN100
     FM231100 11005KT P6SM SCT050 BKN070=

USA.gov is the U.S. government's official web portal to all federal, state and local government web resources and services.